createdAt,value
2023-01-19T00:00:57.306Z,-3.17
2023-01-19T00:03:24.445Z,-3.02
2023-01-19T00:05:52.515Z,-2.77
2023-01-19T00:08:19.635Z,-2.71
2023-01-19T00:10:53.184Z,-2.69
2023-01-19T00:13:21.431Z,-2.60
2023-01-19T00:15:48.489Z,-2.97
2023-01-19T00:18:15.958Z,-3.45
2023-01-19T00:20:46.022Z,-3.81
2023-01-19T00:23:14.493Z,-3.87
2023-01-19T00:25:43.561Z,-3.76
2023-01-19T00:28:14.648Z,-3.53
2023-01-19T00:30:42.526Z,-3.20
2023-01-19T00:33:14.399Z,-3.05
2023-01-19T00:35:42.662Z,-2.91
2023-01-19T00:38:11.859Z,-2.77
2023-01-19T00:40:38.916Z,-2.71
2023-01-19T00:43:06.083Z,-2.70
2023-01-19T00:45:34.048Z,-2.73
2023-01-19T00:48:01.334Z,-2.64
2023-01-19T00:50:31.481Z,-2.84
2023-01-19T00:53:02.459Z,-2.83
2023-01-19T00:55:32.675Z,-3.34
2023-01-19T00:57:59.895Z,-3.53
2023-01-19T01:00:26.967Z,-3.83
2023-01-19T01:02:54.525Z,-3.63
2023-01-19T01:05:22.358Z,-3.62
2023-01-19T01:07:50.536Z,-3.29
2023-01-19T01:10:26.047Z,-3.55
2023-01-19T01:12:57.562Z,-3.56
2023-01-19T01:15:27.148Z,-3.60
2023-01-19T01:17:55.297Z,-3.70
2023-01-19T01:20:30.138Z,-3.48
2023-01-19T01:22:57.805Z,-3.60
2023-01-19T01:25:27.726Z,-3.42
2023-01-19T01:27:55.513Z,-3.25
2023-01-19T01:30:22.862Z,-3.43
2023-01-19T01:32:50.114Z,-3.22
2023-01-19T01:35:17.612Z,-3.05
2023-01-19T01:37:44.734Z,-3.09
2023-01-19T01:40:17.451Z,-3.25
2023-01-19T01:42:45.379Z,-2.90
2023-01-19T01:45:39.463Z,-2.74
2023-01-19T01:48:14.036Z,-2.80
2023-01-19T01:51:08.389Z,-2.77
2023-01-19T01:53:38.534Z,-2.81
2023-01-19T01:56:12.191Z,-2.76
2023-01-19T01:58:40.068Z,-2.70
2023-01-19T02:01:29.318Z,-2.83
2023-01-19T02:03:57.712Z,-2.96
2023-01-19T02:06:25.715Z,-3.72
2023-01-19T02:09:29.003Z,-3.93
2023-01-19T02:12:15.173Z,-4.08
2023-01-19T02:14:42.216Z,-4.47
2023-01-19T02:17:09.271Z,-4.27
2023-01-19T02:19:43.616Z,-4.23
2023-01-19T02:22:23.126Z,-3.98
2023-01-19T02:24:50.352Z,-3.86
2023-01-19T02:27:17.629Z,-3.58
2023-01-19T02:29:44.911Z,-3.50
2023-01-19T02:32:12.808Z,-3.82
2023-01-19T02:34:39.975Z,-3.74
2023-01-19T02:37:17.212Z,-4.22
2023-01-19T02:39:56.253Z,-4.47
2023-01-19T02:42:39.075Z,-4.46
2023-01-19T02:45:09.384Z,-4.15
2023-01-19T02:47:52.984Z,-3.89
2023-01-19T02:50:49.154Z,-4.16
2023-01-19T02:53:47.469Z,-3.80
2023-01-19T02:56:53.824Z,-3.59
2023-01-19T03:00:02.686Z,-3.54
2023-01-19T03:02:55.098Z,-3.83
2023-01-19T03:05:43.532Z,-4.10
2023-01-19T03:08:59.541Z,-4.13
2023-01-19T03:11:38.477Z,-4.28
2023-01-19T03:14:18.410Z,-4.50
2023-01-19T03:16:57.453Z,-4.72
2023-01-19T03:19:42.722Z,-4.39
2023-01-19T03:22:29.825Z,-4.09
2023-01-19T03:25:01.548Z,-4.32
2023-01-19T03:27:40.846Z,-4.30
2023-01-19T03:30:22.379Z,-4.09
2023-01-19T03:33:03.240Z,-3.93
2023-01-19T03:35:35.655Z,-3.74
2023-01-19T03:38:09.553Z,-3.79
2023-01-19T03:40:40.097Z,-3.89
2023-01-19T03:43:09.806Z,-4.06
2023-01-19T03:45:39.060Z,-4.19
2023-01-19T03:48:07.663Z,-4.13
2023-01-19T03:50:34.790Z,-3.84
2023-01-19T03:53:14.416Z,-3.67
2023-01-19T03:55:47.063Z,-3.68
2023-01-19T03:58:14.310Z,-3.54
2023-01-19T04:00:41.513Z,-3.63
2023-01-19T04:03:16.713Z,-3.49
2023-01-19T04:05:44.718Z,-3.53
2023-01-19T04:08:12.989Z,-3.57
2023-01-19T04:10:40.232Z,-3.45
2023-01-19T04:13:07.294Z,-3.51
2023-01-19T04:15:34.490Z,-3.42
2023-01-19T04:18:01.753Z,-3.44
2023-01-19T04:20:30.563Z,-3.51
2023-01-19T04:23:02.165Z,-3.53
2023-01-19T04:25:29.657Z,-3.63
2023-01-19T04:28:00.105Z,-3.45
2023-01-19T04:30:27.900Z,-3.54
2023-01-19T04:32:56.243Z,-3.47
2023-01-19T04:35:23.755Z,-3.39
2023-01-19T04:37:50.811Z,-3.57
2023-01-19T04:40:18.100Z,-3.47
2023-01-19T04:42:46.215Z,-3.71
2023-01-19T04:45:14.698Z,-3.94
2023-01-19T04:47:44.406Z,-4.44
2023-01-19T04:50:12.237Z,-4.80
2023-01-19T04:52:39.300Z,-4.89
2023-01-19T04:55:08.020Z,-4.79
2023-01-19T04:57:35.033Z,-4.50
2023-01-19T05:00:02.933Z,-4.61
2023-01-19T05:02:30.031Z,-4.83
2023-01-19T05:04:57.145Z,-4.85
2023-01-19T05:07:24.327Z,-4.80
2023-01-19T05:09:51.335Z,-4.72
2023-01-19T05:12:18.302Z,-4.59
2023-01-19T05:14:45.412Z,-4.33
2023-01-19T05:17:13.835Z,-4.20
2023-01-19T05:19:40.967Z,-4.39
2023-01-19T05:22:08.350Z,-4.45
2023-01-19T05:24:35.654Z,-4.52
2023-01-19T05:27:02.787Z,-4.43
2023-01-19T05:29:29.809Z,-4.37
2023-01-19T05:31:58.091Z,-4.20
2023-01-19T05:34:25.390Z,-3.98
2023-01-19T05:36:55.193Z,-4.10
2023-01-19T05:39:22.227Z,-3.92
2023-01-19T05:41:49.299Z,-3.80
2023-01-19T05:44:16.290Z,-3.80
2023-01-19T05:46:43.314Z,-3.76
2023-01-19T05:49:12.156Z,-3.77
2023-01-19T05:51:40.536Z,-3.87
2023-01-19T05:54:08.587Z,-3.70
2023-01-19T05:56:36.102Z,-3.80
2023-01-19T05:59:03.161Z,-3.97
2023-01-19T06:01:36.516Z,-3.87
2023-01-19T06:04:05.640Z,-3.76
2023-01-19T06:06:32.727Z,-3.76
2023-01-19T06:08:59.774Z,-3.73
2023-01-19T06:11:26.867Z,-3.61
2023-01-19T06:13:53.997Z,-3.63
2023-01-19T06:16:21.363Z,-3.68
2023-01-19T06:18:48.366Z,-3.69
2023-01-19T06:21:15.510Z,-3.71
2023-01-19T06:23:42.548Z,-3.67
2023-01-19T06:26:10.077Z,-3.58
2023-01-19T06:28:39.364Z,-3.69
2023-01-19T06:31:06.607Z,-3.84
2023-01-19T06:33:33.628Z,-3.92
2023-01-19T06:36:00.817Z,-3.81
2023-01-19T06:38:28.581Z,-3.73
2023-01-19T06:41:03.054Z,-3.81
2023-01-19T06:43:31.682Z,-3.67
2023-01-19T06:46:00.870Z,-3.80
2023-01-19T06:48:30.366Z,-3.67
2023-01-19T06:50:59.602Z,-3.82
2023-01-19T06:53:28.262Z,-3.87
2023-01-19T06:56:01.376Z,-3.91
2023-01-19T06:58:31.086Z,-3.89
2023-01-19T07:01:06.638Z,-4.05
2023-01-19T07:03:35.475Z,-3.96
2023-01-19T07:06:02.989Z,-4.05
2023-01-19T07:08:30.189Z,-3.80
2023-01-19T07:11:26.361Z,-3.82
2023-01-19T07:13:59.693Z,-4.11
2023-01-19T07:16:26.894Z,-3.93
2023-01-19T07:18:54.173Z,-3.86
2023-01-19T07:21:21.823Z,-3.97
2023-01-19T07:23:51.840Z,-3.79
2023-01-19T07:26:21.212Z,-3.68
2023-01-19T07:28:48.946Z,-3.89
2023-01-19T07:31:19.260Z,-3.93
2023-01-19T07:33:47.061Z,-3.70
2023-01-19T07:36:14.407Z,-3.70
2023-01-19T07:38:42.851Z,-3.50
2023-01-19T07:41:10.953Z,-3.48
2023-01-19T07:43:38.353Z,-3.55
2023-01-19T07:46:08.060Z,-3.49
2023-01-19T07:48:36.795Z,-3.54
2023-01-19T07:51:06.291Z,-3.39
2023-01-19T07:53:33.303Z,-3.38
2023-01-19T07:56:00.609Z,-3.34
2023-01-19T07:58:27.848Z,-3.36
2023-01-19T08:00:55.174Z,-3.18
2023-01-19T08:03:24.368Z,-3.14
2023-01-19T08:05:56.963Z,-3.14
2023-01-19T08:08:23.996Z,-3.26
2023-01-19T08:10:52.439Z,-3.32
2023-01-19T08:13:20.155Z,-3.14
2023-01-19T08:15:52.543Z,-2.97
2023-01-19T08:18:20.557Z,-3.11
2023-01-19T08:20:47.982Z,-3.10
2023-01-19T08:23:15.178Z,-2.80
2023-01-19T08:25:45.137Z,-3.04
2023-01-19T08:28:17.162Z,-2.78
2023-01-19T08:30:45.570Z,-2.67
2023-01-19T08:33:13.813Z,-2.64
2023-01-19T08:35:44.097Z,-2.50
2023-01-19T08:38:11.600Z,-2.65
2023-01-19T08:40:41.893Z,-2.44
2023-01-19T08:43:16.306Z,-2.36
2023-01-19T08:45:52.368Z,-2.39
2023-01-19T08:48:22.715Z,-2.44
2023-01-19T08:50:51.764Z,-2.32
2023-01-19T08:53:21.238Z,-2.28
2023-01-19T08:55:48.335Z,-2.14
2023-01-19T08:58:16.129Z,-2.23
2023-01-19T09:00:46.030Z,-2.01
2023-01-19T09:03:13.934Z,-2.02
2023-01-19T09:05:41.061Z,-1.87
2023-01-19T09:08:13.245Z,-1.83
2023-01-19T09:10:51.004Z,-1.83
2023-01-19T09:13:20.176Z,-1.78
2023-01-19T09:15:50.144Z,-1.69
2023-01-19T09:18:24.768Z,-1.66
2023-01-19T09:20:51.810Z,-1.59
2023-01-19T09:23:20.682Z,-1.45
2023-01-19T09:25:49.179Z,-1.43
2023-01-19T09:28:17.945Z,-1.30
2023-01-19T09:30:45.751Z,-1.26
2023-01-19T09:33:16.879Z,-1.34
2023-01-19T09:35:46.739Z,-1.17
2023-01-19T09:38:16.758Z,-1.10
2023-01-19T09:40:53.473Z,-0.97
2023-01-19T09:43:47.762Z,-0.84
2023-01-19T09:46:25.567Z,-0.79
2023-01-19T09:48:59.034Z,-0.77
2023-01-19T09:51:35.123Z,-0.55
2023-01-19T09:54:20.859Z,-0.58
2023-01-19T09:56:52.705Z,-0.63
2023-01-19T09:59:32.974Z,-0.51
2023-01-19T10:02:28.997Z,-0.49
2023-01-19T10:05:22.574Z,-0.38
2023-01-19T10:08:08.272Z,-0.24
2023-01-19T10:10:40.436Z,-0.26
2023-01-19T10:13:47.022Z,-0.22
2023-01-19T10:16:56.951Z,-0.11
2023-01-19T10:19:32.715Z,-0.22
2023-01-19T10:22:35.893Z,-0.14
2023-01-19T10:25:14.027Z,-0.13
2023-01-19T10:27:42.823Z,-0.18
2023-01-19T10:30:27.718Z,0.05
2023-01-19T10:32:55.259Z,-0.02
2023-01-19T10:35:25.075Z,0.04
2023-01-19T10:38:01.371Z,0.06
2023-01-19T10:40:57.371Z,0.17
2023-01-19T10:43:44.897Z,0.37
2023-01-19T10:46:31.267Z,0.44
2023-01-19T10:48:58.456Z,0.50
2023-01-19T10:51:27.284Z,0.56
2023-01-19T10:54:13.859Z,0.50
2023-01-19T10:56:42.192Z,0.57
2023-01-19T10:59:44.220Z,0.56
2023-01-19T11:02:23.581Z,0.74
2023-01-19T11:04:59.467Z,0.75
2023-01-19T11:07:26.281Z,0.82
2023-01-19T11:10:20.775Z,0.85
2023-01-19T11:13:01.255Z,0.92
2023-01-19T11:15:58.991Z,0.84
2023-01-19T11:18:37.519Z,0.93
2023-01-19T11:21:16.605Z,0.70
2023-01-19T11:23:56.305Z,0.98
2023-01-19T11:26:38.987Z,0.86
2023-01-19T11:29:06.474Z,1.04
2023-01-19T11:31:37.948Z,1.13
2023-01-19T11:34:38.637Z,1.18
2023-01-19T11:37:18.527Z,1.40
2023-01-19T11:39:48.136Z,1.05
2023-01-19T11:42:16.868Z,1.19
2023-01-19T11:44:58.530Z,1.50
2023-01-19T11:47:46.036Z,1.43
2023-01-19T11:50:27.474Z,1.26
2023-01-19T11:53:13.065Z,1.36
2023-01-19T11:56:08.233Z,1.33
2023-01-19T11:58:41.506Z,1.53
2023-01-19T12:01:30.190Z,1.77
2023-01-19T12:04:14.193Z,1.53
2023-01-19T12:06:55.216Z,1.78
2023-01-19T12:09:46.381Z,1.53
2023-01-19T12:12:40.065Z,1.62
2023-01-19T12:15:47.804Z,1.84
2023-01-19T12:18:26.915Z,1.74
2023-01-19T12:20:56.317Z,1.52
2023-01-19T12:24:07.823Z,1.39
2023-01-19T12:26:59.014Z,1.51
2023-01-19T12:29:33.713Z,1.48
2023-01-19T12:32:20.200Z,1.72
2023-01-19T12:34:55.775Z,1.72
2023-01-19T12:37:39.551Z,1.28
2023-01-19T12:40:31.275Z,1.82
2023-01-19T12:43:05.285Z,1.84
2023-01-19T12:45:39.854Z,1.99
2023-01-19T12:48:25.980Z,1.82
2023-01-19T12:50:53.098Z,2.00
2023-01-19T12:53:22.452Z,2.02
2023-01-19T12:56:01.962Z,1.68
2023-01-19T12:58:29.394Z,2.17
2023-01-19T13:01:21.416Z,2.09
2023-01-19T13:04:33.621Z,1.94
2023-01-19T13:07:10.586Z,2.07
2023-01-19T13:09:39.258Z,2.19
2023-01-19T13:12:15.078Z,2.28
2023-01-19T13:14:43.349Z,2.36
2023-01-19T13:17:48.980Z,2.35
2023-01-19T13:20:33.277Z,2.38
2023-01-19T13:23:25.087Z,1.98
2023-01-19T13:26:12.781Z,2.14
2023-01-19T13:28:49.663Z,2.26
2023-01-19T13:31:20.343Z,2.43
2023-01-19T13:33:59.866Z,2.28
2023-01-19T13:36:33.129Z,2.02
2023-01-19T13:39:06.398Z,1.91
2023-01-19T13:41:41.074Z,2.21
2023-01-19T13:44:18.196Z,2.05
2023-01-19T13:46:47.805Z,2.17
2023-01-19T13:49:43.968Z,2.25
2023-01-19T13:52:27.535Z,2.20
2023-01-19T13:55:05.437Z,1.94
2023-01-19T13:57:41.616Z,1.91
2023-01-19T14:00:12.187Z,1.83
2023-01-19T14:03:11.621Z,1.66
2023-01-19T14:05:42.339Z,1.68
2023-01-19T14:08:12.336Z,1.66
2023-01-19T14:11:01.085Z,1.50
2023-01-19T14:13:41.525Z,1.36
2023-01-19T14:16:17.897Z,1.18
2023-01-19T14:18:45.015Z,1.08
2023-01-19T14:21:15.804Z,1.18
2023-01-19T14:24:16.999Z,1.19
2023-01-19T14:26:53.671Z,1.20
2023-01-19T14:29:38.058Z,1.03
2023-01-19T14:32:09.819Z,1.08
2023-01-19T14:34:51.386Z,1.04
2023-01-19T14:37:29.430Z,0.75
2023-01-19T14:40:00.838Z,0.74
2023-01-19T14:42:37.192Z,0.84
2023-01-19T14:45:22.536Z,0.77
2023-01-19T14:48:19.586Z,0.68
2023-01-19T14:51:02.493Z,0.69
2023-01-19T14:53:38.999Z,0.69
2023-01-19T14:56:07.709Z,0.59
2023-01-19T14:58:36.210Z,0.58
2023-01-19T15:01:04.702Z,0.52
2023-01-19T15:03:44.688Z,0.45
2023-01-19T15:06:19.838Z,0.52
2023-01-19T15:08:53.175Z,0.48
2023-01-19T15:11:34.630Z,0.31
2023-01-19T15:14:02.417Z,0.32
2023-01-19T15:16:32.882Z,0.32
2023-01-19T15:19:00.688Z,0.24
2023-01-19T15:21:27.776Z,0.27
2023-01-19T15:23:55.802Z,0.15
2023-01-19T15:26:26.500Z,0.12
2023-01-19T15:28:55.840Z,0.16
2023-01-19T15:31:29.773Z,0.14
2023-01-19T15:33:56.986Z,0.16
2023-01-19T15:36:25.997Z,0.12
2023-01-19T15:38:53.082Z,0.05
2023-01-19T15:41:31.961Z,0.03
2023-01-19T15:43:59.567Z,-0.04
2023-01-19T15:46:29.925Z,-0.12
2023-01-19T15:48:56.909Z,-0.23
2023-01-19T15:51:26.564Z,-0.34
2023-01-19T15:53:57.671Z,-0.31
2023-01-19T15:56:31.089Z,-0.31
2023-01-19T15:58:59.604Z,-0.47
2023-01-19T16:01:33.907Z,-0.40
2023-01-19T16:04:07.409Z,-0.57
2023-01-19T16:06:34.860Z,-0.56
2023-01-19T16:09:03.757Z,-0.73
2023-01-19T16:11:35.480Z,-0.92
2023-01-19T16:14:02.652Z,-0.94
2023-01-19T16:16:29.928Z,-0.89
2023-01-19T16:18:57.451Z,-0.99
2023-01-19T16:21:28.213Z,-0.86
2023-01-19T16:23:55.667Z,-0.70
2023-01-19T16:26:36.550Z,-0.74
2023-01-19T16:29:09.738Z,-0.73
2023-01-19T16:31:42.680Z,-0.74
2023-01-19T16:34:10.483Z,-0.85
2023-01-19T16:36:40.861Z,-0.84
2023-01-19T16:39:14.719Z,-0.83
2023-01-19T16:41:43.621Z,-0.82
2023-01-19T16:44:13.856Z,-0.75
2023-01-19T16:46:44.716Z,-0.75
2023-01-19T16:49:21.060Z,-0.70
2023-01-19T16:51:49.211Z,-0.70
2023-01-19T16:54:23.339Z,-0.80
2023-01-19T16:56:50.471Z,-0.79
2023-01-19T16:59:21.957Z,-0.65
2023-01-19T17:01:51.280Z,-0.78
2023-01-19T17:04:21.184Z,-0.95
2023-01-19T17:06:48.568Z,-0.92
2023-01-19T17:09:16.595Z,-0.86
2023-01-19T17:11:44.321Z,-0.70
2023-01-19T17:14:22.244Z,-0.48
2023-01-19T17:16:49.698Z,-0.49
2023-01-19T17:19:22.193Z,-0.46
2023-01-19T17:21:50.221Z,-0.29
2023-01-19T17:24:18.073Z,-0.25
2023-01-19T17:26:48.439Z,-0.29
2023-01-19T17:29:16.650Z,-0.12
2023-01-19T17:31:44.601Z,0.01
2023-01-19T17:34:11.747Z,-0.05
2023-01-19T17:36:40.926Z,-0.05
2023-01-19T17:39:14.700Z,-0.11
2023-01-19T17:41:42.468Z,-0.12
2023-01-19T17:44:10.345Z,-0.09
2023-01-19T17:46:38.718Z,-0.15
2023-01-19T17:49:07.913Z,-0.44
2023-01-19T17:51:35.650Z,-0.15
2023-01-19T17:54:04.092Z,-0.10
2023-01-19T17:56:36.574Z,-0.24
2023-01-19T17:59:06.505Z,-0.11
2023-01-19T18:01:34.569Z,-0.08
2023-01-19T18:04:02.543Z,-0.08
2023-01-19T18:06:29.647Z,-0.08
2023-01-19T18:08:58.356Z,-0.02
2023-01-19T18:11:27.407Z,0.06
2023-01-19T18:13:54.535Z,0.17
2023-01-19T18:16:32.738Z,0.13
2023-01-19T18:18:59.761Z,0.19
2023-01-19T18:21:28.138Z,0.00
2023-01-19T18:24:06.042Z,0.19
2023-01-19T18:26:35.057Z,0.12
2023-01-19T18:29:02.284Z,0.22
2023-01-19T18:31:29.617Z,0.22
2023-01-19T18:33:56.820Z,0.23
2023-01-19T18:36:24.006Z,0.27
2023-01-19T18:38:51.482Z,0.31
2023-01-19T18:41:21.699Z,0.26
2023-01-19T18:43:49.432Z,0.22
2023-01-19T18:46:16.894Z,0.28
2023-01-19T18:48:44.538Z,0.22
2023-01-19T18:51:15.413Z,0.25
2023-01-19T18:53:44.465Z,0.28
2023-01-19T18:56:15.225Z,0.32
2023-01-19T18:58:43.193Z,0.37
2023-01-19T19:01:32.387Z,0.34
2023-01-19T19:04:00.984Z,0.41
2023-01-19T19:06:28.951Z,0.38
2023-01-19T19:08:59.334Z,0.39
2023-01-19T19:11:28.065Z,0.40
2023-01-19T19:14:00.788Z,0.46
2023-01-19T19:16:29.557Z,0.48
2023-01-19T19:18:56.780Z,0.53
2023-01-19T19:21:25.999Z,0.58
2023-01-19T19:23:56.769Z,0.66
2023-01-19T19:26:26.183Z,0.69
2023-01-19T19:28:53.412Z,0.72
2023-01-19T19:31:22.910Z,0.75
2023-01-19T19:33:51.077Z,0.80
2023-01-19T19:36:19.895Z,0.84
2023-01-19T19:38:48.839Z,0.83
2023-01-19T19:41:24.247Z,0.85
2023-01-19T19:43:51.544Z,0.92
2023-01-19T19:46:22.768Z,0.93
2023-01-19T19:48:50.756Z,0.97
2023-01-19T19:51:25.400Z,0.98
2023-01-19T19:53:57.441Z,1.01
2023-01-19T19:56:27.949Z,1.03
2023-01-19T19:58:58.886Z,1.08
2023-01-19T20:01:32.563Z,1.11
2023-01-19T20:04:08.909Z,1.14
2023-01-19T20:06:40.401Z,1.15
2023-01-19T20:09:10.662Z,1.14
2023-01-19T20:11:38.105Z,1.12
2023-01-19T20:14:11.416Z,1.12
2023-01-19T20:16:39.115Z,1.18
2023-01-19T20:19:06.714Z,1.17
2023-01-19T20:21:43.453Z,1.21
2023-01-19T20:24:17.112Z,1.13
2023-01-19T20:26:50.412Z,1.17
2023-01-19T20:29:18.172Z,1.19
2023-01-19T20:31:52.522Z,1.21
2023-01-19T20:34:25.236Z,1.27
2023-01-19T20:36:53.813Z,1.20
2023-01-19T20:39:23.632Z,1.32
2023-01-19T20:41:52.435Z,1.29
2023-01-19T20:44:24.009Z,1.32
2023-01-19T20:46:52.693Z,1.34
2023-01-19T20:49:20.044Z,1.34
2023-01-19T20:51:47.273Z,1.26
2023-01-19T20:54:19.140Z,1.20
2023-01-19T20:56:46.131Z,1.24
2023-01-19T20:59:13.940Z,1.23
2023-01-19T21:01:41.994Z,1.23
2023-01-19T21:04:10.144Z,1.22
2023-01-19T21:06:38.078Z,1.24
2023-01-19T21:09:05.619Z,1.24
2023-01-19T21:11:33.032Z,1.26
2023-01-19T21:14:00.469Z,1.29
2023-01-19T21:16:33.445Z,1.32
2023-01-19T21:19:00.573Z,1.33
2023-01-19T21:21:31.861Z,1.36
2023-01-19T21:24:02.148Z,1.30
2023-01-19T21:26:30.410Z,1.34
2023-01-19T21:29:02.603Z,1.37
2023-01-19T21:31:30.721Z,1.37
2023-01-19T21:33:58.663Z,1.40
2023-01-19T21:36:26.394Z,1.43
2023-01-19T21:38:59.983Z,1.45
2023-01-19T21:41:28.561Z,1.46
2023-01-19T21:43:55.626Z,1.49
2023-01-19T21:46:29.436Z,1.50
2023-01-19T21:49:03.742Z,1.50
2023-01-19T21:51:35.047Z,1.51
2023-01-19T21:54:05.695Z,1.52
2023-01-19T21:56:34.277Z,1.52
2023-01-19T21:59:05.440Z,1.49
2023-01-19T22:01:34.059Z,1.52
2023-01-19T22:04:01.333Z,1.51
2023-01-19T22:06:28.883Z,1.52
2023-01-19T22:08:57.874Z,1.54
2023-01-19T22:11:25.495Z,1.53
2023-01-19T22:13:53.571Z,1.52
2023-01-19T22:16:22.877Z,1.55
2023-01-19T22:18:54.443Z,1.55
2023-01-19T22:21:25.219Z,1.53
2023-01-19T22:23:56.743Z,1.56
2023-01-19T22:26:24.182Z,1.55
2023-01-19T22:29:00.582Z,1.57
2023-01-19T22:31:29.444Z,1.53
2023-01-19T22:33:57.359Z,1.57
2023-01-19T22:36:31.943Z,1.60
2023-01-19T22:39:07.069Z,1.57
2023-01-19T22:41:46.150Z,1.59
2023-01-19T22:44:20.988Z,1.60
2023-01-19T22:46:50.980Z,1.62
2023-01-19T22:49:19.164Z,1.61
2023-01-19T22:51:46.614Z,1.64
2023-01-19T22:54:14.092Z,1.66
2023-01-19T22:56:42.007Z,1.67
2023-01-19T22:59:09.645Z,1.70
2023-01-19T23:01:41.980Z,1.67
2023-01-19T23:04:15.655Z,1.73
2023-01-19T23:06:42.946Z,1.72
2023-01-19T23:09:14.999Z,1.70
2023-01-19T23:11:51.357Z,1.71
2023-01-19T23:14:22.008Z,1.70
2023-01-19T23:16:49.196Z,1.67
2023-01-19T23:19:19.782Z,1.69
2023-01-19T23:21:49.926Z,1.64
2023-01-19T23:24:16.961Z,1.68
2023-01-19T23:26:43.951Z,1.65
2023-01-19T23:29:14.864Z,1.66
2023-01-19T23:31:49.847Z,1.68
2023-01-19T23:34:17.160Z,1.68
2023-01-19T23:36:44.999Z,1.70
2023-01-19T23:39:21.353Z,1.68
2023-01-19T23:41:49.640Z,1.71
2023-01-19T23:44:18.000Z,1.70
2023-01-19T23:46:45.751Z,1.71
2023-01-19T23:49:13.677Z,1.72
2023-01-19T23:51:41.589Z,1.68
2023-01-19T23:54:09.140Z,1.70
2023-01-19T23:56:38.713Z,1.63
2023-01-19T23:59:15.146Z,1.54
